Time;durP1;ratioP1;P1;durP2;ratioP2;P2;SDS_P1;SDS_P2;PMS_P1;PMS_P2;Temp;Humidity;BMP_temperature;BMP_pressure;BME280_temperature;BME280_humidity;BME280_pressure;Samples;Min_cycle;Max_cycle;Signal;HPM_P1;HPM_P2
2023/06/10 00:00:42;;;;;;;0.00;0.00;;;;;;;16.99;69.94;100512.34;4954594;28;20201;-76
2023/06/10 00:03:08;;;;;;;0.00;0.00;;;;;;;16.95;70.31;100506.75;4972263;28;20210;-76
2023/06/10 00:05:34;;;;;;;0.00;0.00;;;;;;;16.81;71.43;100513.84;4972283;28;20531;-76
2023/06/10 00:08:01;;;;;;;0.00;0.00;;;;;;;16.75;71.65;100517.97;4972191;28;20185;-76
2023/06/10 00:10:26;;;;;;;0.00;0.00;;;;;;;16.75;71.75;100515.22;4971970;28;20186;-76
2023/06/10 00:12:52;;;;;;;0.00;0.00;;;;;;;16.60;71.79;100519.50;4971937;28;20707;-74
2023/06/10 00:15:17;;;;;;;0.00;0.00;;;;;;;16.58;72.06;100521.81;4954552;28;20644;-76
2023/06/10 00:17:43;;;;;;;0.00;0.00;;;;;;;16.61;72.26;100518.34;4971988;28;20182;-76
2023/06/10 00:20:11;;;;;;;0.00;0.00;;;;;;;16.32;71.87;100508.44;4954426;28;20233;-76
2023/06/10 00:22:37;;;;;;;0.00;0.00;;;;;;;16.10;71.93;100514.47;4971997;28;20210;-76
2023/06/10 00:25:04;;;;;;;0.00;0.00;;;;;;;15.87;73.04;100514.94;4972131;28;20652;-76
2023/06/10 00:27:34;;;;;;;0.00;0.00;;;;;;;16.02;72.61;100510.66;4971820;28;20188;-76
2023/06/10 00:30:01;;;;;;;0.20;0.20;;;;;;;16.15;72.72;100511.47;4971623;28;20273;-76
2023/06/10 00:32:26;;;;;;;0.00;0.00;;;;;;;16.10;71.85;100501.47;4971834;28;20210;-76
2023/06/10 00:34:51;;;;;;;0.00;0.00;;;;;;;16.03;72.44;100504.81;4971941;28;20186;-76
2023/06/10 00:37:16;;;;;;;0.00;0.00;;;;;;;15.87;72.23;100500.34;4971867;28;20190;-74
2023/06/10 00:39:42;;;;;;;0.00;0.00;;;;;;;15.85;72.05;100502.66;4971603;28;20664;-76
2023/06/10 00:42:07;;;;;;;0.00;0.00;;;;;;;15.48;73.05;100510.88;4971507;28;21321;-76
2023/06/10 00:44:33;;;;;;;0.00;0.00;;;;;;;15.14;74.39;100514.81;4971784;28;20185;-76
2023/06/10 00:46:58;;;;;;;0.00;0.00;;;;;;;15.03;75.00;100516.38;4972143;28;20223;-76
2023/06/10 00:49:24;;;;;;;0.00;0.00;;;;;;;15.00;75.43;100530.81;4971345;28;20652;-75
2023/06/10 00:51:51;;;;;;;0.00;0.00;;;;;;;14.97;75.35;100523.25;4971740;28;20177;-75
2023/06/10 00:54:17;;;;;;;0.00;0.00;;;;;;;15.13;75.06;100525.03;4971828;28;20205;-76
2023/06/10 00:56:43;;;;;;;0.00;0.00;;;;;;;15.34;75.12;100522.22;4971638;28;20191;-76
2023/06/10 00:59:08;;;;;;;0.00;0.00;;;;;;;15.41;74.32;100516.13;4953718;28;20653;-76
2023/06/10 01:01:34;;;;;;;0.00;0.00;;;;;;;15.04;74.58;100507.00;4971590;28;20296;-76
2023/06/10 01:04:00;;;;;;;0.00;0.00;;;;;;;14.87;75.37;100508.78;4971613;28;20672;-76
2023/06/10 01:06:47;;;;;;;0.27;0.27;;;;;;;14.69;76.18;100514.78;4972092;28;20241;-76
2023/06/10 01:09:23;;;;;;;0.00;0.00;;;;;;;14.63;76.96;100514.19;4970933;28;20190;-76
2023/06/10 01:11:57;;;;;;;0.10;0.10;;;;;;;14.45;77.65;100512.72;4971529;28;20189;-75
2023/06/10 01:14:24;;;;;;;0.07;0.07;;;;;;;14.36;78.44;100514.69;4971617;28;20759;-75
2023/06/10 01:16:49;;;;;;;1.10;0.60;;;;;;;14.21;79.58;100513.34;4971558;28;20213;-74
2023/06/10 01:19:17;;;;;;;0.27;0.27;;;;;;;14.23;80.72;100508.31;4971012;28;20219;-76
2023/06/10 01:21:48;;;;;;;0.00;0.00;;;;;;;14.28;81.42;100525.41;4971214;28;20204;-76
2023/06/10 01:24:14;;;;;;;1.43;1.43;;;;;;;14.18;81.95;100523.06;4954190;28;20202;-74
2023/06/10 01:26:41;;;;;;;0.00;0.00;;;;;;;14.11;83.19;100524.72;4971677;28;20614;-76
2023/06/10 01:29:28;;;;;;;0.27;0.27;;;;;;;14.06;84.75;100520.25;4974576;28;20268;-76
2023/06/10 01:32:07;;;;;;;0.60;0.60;;;;;;;14.13;86.17;100514.22;4974893;28;20268;-76
2023/06/10 01:34:35;;;;;;;0.40;0.40;;;;;;;14.17;87.34;100529.69;4975065;28;20182;-76
2023/06/10 01:37:03;;;;;;;0.60;0.60;;;;;;;14.15;88.64;100525.66;4975017;28;20213;-76
2023/06/10 01:39:30;;;;;;;0.10;0.10;;;;;;;14.15;89.84;100523.72;4974620;28;20177;-76
2023/06/10 01:41:56;;;;;;;0.03;0.03;;;;;;;14.19;90.44;100530.19;4974799;28;20244;-76
2023/06/10 01:44:22;;;;;;;0.00;0.00;;;;;;;14.24;90.83;100532.72;4974926;28;20619;-76
2023/06/10 01:46:48;;;;;;;0.07;0.07;;;;;;;14.18;91.63;100528.56;4974687;28;20594;-76
2023/06/10 01:49:13;;;;;;;0.00;0.00;;;;;;;14.34;91.27;100531.53;4974480;28;20193;-76
2023/06/10 01:51:39;;;;;;;0.00;0.00;;;;;;;14.23;91.82;100544.06;4974798;28;20225;-74
2023/06/10 01:54:05;;;;;;;0.00;0.00;;;;;;;14.23;92.43;100535.81;4974678;28;20212;-76
2023/06/10 01:56:30;;;;;;;0.00;0.00;;;;;;;14.19;92.31;100543.13;4974709;28;20201;-76
2023/06/10 01:58:58;;;;;;;0.27;0.27;;;;;;;13.73;94.15;100539.31;4956696;28;20566;-76
2023/06/10 02:01:27;;;;;;;0.00;0.00;;;;;;;13.67;95.44;100540.63;4956984;28;20292;-76
2023/06/10 02:03:52;;;;;;;0.00;0.00;;;;;;;13.72;96.03;100536.88;4974380;28;20201;-76
2023/06/10 02:06:18;;;;;;;0.00;0.00;;;;;;;13.76;96.69;100548.84;4974815;28;20284;-76
2023/06/10 02:08:43;;;;;;;0.50;0.43;;;;;;;13.87;96.47;100547.31;4973976;28;20192;-73
2023/06/10 02:11:09;;;;;;;0.47;0.47;;;;;;;13.95;96.10;100549.22;4974302;28;20264;-76
2023/06/10 02:13:34;;;;;;;0.00;0.00;;;;;;;13.77;96.44;100548.50;4974267;28;20212;-76
2023/06/10 02:16:00;;;;;;;0.00;0.00;;;;;;;13.49;98.29;100550.88;4974194;28;20186;-76
2023/06/10 02:18:27;;;;;;;1.60;1.07;;;;;;;13.48;100.00;100546.53;4974156;28;20268;-76
2023/06/10 02:20:53;;;;;;;0.00;0.00;;;;;;;13.49;100.00;100547.34;4974091;28;20182;-76
2023/06/10 02:23:18;;;;;;;0.00;0.00;;;;;;;13.39;100.00;100543.78;4956851;28;20206;-74
2023/06/10 02:25:43;;;;;;;7.33;1.93;;;;;;;13.10;100.00;100549.16;4974258;28;20236;-76
2023/06/10 02:28:09;;;;;;;0.27;0.27;;;;;;;13.18;100.00;100547.56;4973884;28;20679;-75
2023/06/10 02:30:35;;;;;;;0.00;0.00;;;;;;;13.16;100.00;100558.81;4973583;28;20197;-76
2023/06/10 02:33:01;;;;;;;0.00;0.00;;;;;;;13.24;100.00;100565.47;4973807;28;20261;-76
2023/06/10 02:35:26;;;;;;;0.00;0.00;;;;;;;13.45;100.00;100566.38;4973869;28;20680;-76
2023/06/10 02:37:51;;;;;;;0.00;0.00;;;;;;;13.33;100.00;100563.53;4973466;28;20186;-76
2023/06/10 02:40:16;;;;;;;0.53;0.53;;;;;;;13.16;100.00;100563.50;4955531;28;20652;-76
2023/06/10 02:42:42;;;;;;;0.00;0.00;;;;;;;13.21;100.00;100571.63;4974008;28;20292;-76
2023/06/10 02:45:08;;;;;;;0.00;0.00;;;;;;;13.02;100.00;100580.19;4973598;28;20260;-76
2023/06/10 02:47:33;;;;;;;0.00;0.00;;;;;;;13.01;100.00;100579.34;4973732;28;20656;-76
2023/06/10 02:49:58;;;;;;;0.30;0.20;;;;;;;13.02;100.00;100583.72;4973178;28;20189;-76
2023/06/10 02:52:24;;;;;;;0.00;0.00;;;;;;;13.22;100.00;100579.53;4956596;28;20631;-75
2023/06/10 02:54:50;;;;;;;0.00;0.00;;;;;;;13.25;100.00;100583.53;4973696;28;20665;-74
2023/06/10 02:57:15;;;;;;;0.00;0.00;;;;;;;13.23;100.00;100580.31;4973474;28;20257;-76
2023/06/10 02:59:40;;;;;;;0.10;0.10;;;;;;;12.80;100.00;100581.94;4955522;28;20317;-76
2023/06/10 03:02:06;;;;;;;0.00;0.00;;;;;;;12.68;100.00;100587.25;4955915;28;20209;-76
2023/06/10 03:04:31;;;;;;;0.10;0.10;;;;;;;12.67;100.00;100590.31;4973550;28;20189;-76
2023/06/10 03:06:57;;;;;;;0.00;0.00;;;;;;;12.65;100.00;100579.69;4956286;28;20221;-76
2023/06/10 03:09:22;;;;;;;0.00;0.00;;;;;;;12.94;100.00;100575.50;4955459;28;20193;-76
2023/06/10 03:11:47;;;;;;;0.00;0.00;;;;;;;13.16;100.00;100575.28;4973053;28;20300;-75
2023/06/10 03:14:13;;;;;;;0.00;0.00;;;;;;;12.92;100.00;100588.72;4972944;28;20680;-74
2023/06/10 03:16:42;;;;;;;0.00;0.00;;;;;;;12.78;100.00;100577.91;4973010;28;20323;-76
2023/06/10 03:19:08;;;;;;;0.00;0.00;;;;;;;12.54;100.00;100591.28;4955236;28;20185;-76
2023/06/10 03:21:34;;;;;;;0.20;0.20;;;;;;;12.52;100.00;100594.34;4973052;28;20680;-76
2023/06/10 03:24:00;;;;;;;0.00;0.00;;;;;;;12.68;100.00;100594.69;4973063;28;20202;-74
2023/06/10 03:26:27;;;;;;;0.00;0.00;;;;;;;12.84;100.00;100600.47;4973028;28;20182;-76
2023/06/10 03:28:52;;;;;;;0.00;0.00;;;;;;;12.96;100.00;100593.22;4972172;28;20182;-76
2023/06/10 03:31:18;;;;;;;0.00;0.00;;;;;;;12.57;100.00;100594.19;4972939;28;20193;-74
2023/06/10 03:33:43;;;;;;;0.27;0.27;;;;;;;12.33;100.00;100599.31;4955396;28;20256;-76
2023/06/10 03:36:09;;;;;;;0.00;0.00;;;;;;;12.36;100.00;100599.47;4972792;28;20194;-76
2023/06/10 03:38:35;;;;;;;0.00;0.00;;;;;;;12.34;100.00;100612.69;4972319;28;20194;-76
2023/06/10 03:41:00;;;;;;;0.87;0.87;;;;;;;12.18;100.00;100614.25;4972637;28;20653;-75
2023/06/10 03:43:26;;;;;;;0.33;0.33;;;;;;;12.11;100.00;100613.91;4972345;28;20213;-76
2023/06/10 03:45:52;;;;;;;0.00;0.00;;;;;;;12.22;100.00;100620.72;4972703;28;20282;-76
2023/06/10 03:48:17;;;;;;;0.00;0.00;;;;;;;12.33;100.00;100627.53;4972423;28;20588;-76
2023/06/10 03:50:42;;;;;;;0.00;0.00;;;;;;;12.30;100.00;100621.88;4972035;28;20185;-77
2023/06/10 03:53:08;;;;;;;0.83;0.83;;;;;;;12.30;100.00;100628.16;4972499;28;20217;-76
2023/06/10 03:55:33;;;;;;;0.00;0.00;;;;;;;12.35;100.00;100618.97;4973545;28;20182;-73
2023/06/10 03:57:58;;;;;;;0.00;0.00;;;;;;;12.38;100.00;100612.84;4970558;28;20185;-75
2023/06/10 04:00:24;;;;;;;0.10;0.10;;;;;;;12.39;100.00;100618.00;4972351;28;20273;-75
2023/06/10 04:02:51;;;;;;;0.00;0.00;;;;;;;12.31;100.00;100627.03;4971585;28;20241;-76
2023/06/10 04:05:17;;;;;;;0.00;0.00;;;;;;;12.36;100.00;100626.88;4972644;28;20182;-76
2023/06/10 04:07:43;;;;;;;0.00;0.00;;;;;;;12.31;100.00;100621.56;4972226;28;20189;-75
2023/06/10 04:10:10;;;;;;;0.10;0.10;;;;;;;12.42;100.00;100627.53;4971838;28;20308;-76
2023/06/10 04:12:36;;;;;;;0.00;0.00;;;;;;;12.42;100.00;100642.03;4972080;28;20208;-76
2023/06/10 04:15:02;;;;;;;0.00;0.00;;;;;;;12.54;100.00;100633.19;4972188;28;20240;-76
2023/06/10 04:17:28;;;;;;;0.00;0.00;;;;;;;12.64;100.00;100637.56;4971738;28;20211;-76
2023/06/10 04:19:54;;;;;;;1.00;0.90;;;;;;;12.70;100.00;100633.53;4971514;28;20272;-76
2023/06/10 04:22:20;;;;;;;0.00;0.00;;;;;;;12.68;100.00;100633.06;4954128;28;20232;-76
2023/06/10 04:24:45;;;;;;;0.13;0.13;;;;;;;12.66;100.00;100633.38;4954097;28;20205;-76
2023/06/10 04:27:11;;;;;;;0.17;0.17;;;;;;;12.73;100.00;100636.47;4971072;28;20611;-75
2023/06/10 04:29:36;;;;;;;0.00;0.00;;;;;;;12.74;100.00;100637.28;4971234;28;20190;-76
2023/06/10 04:32:02;;;;;;;0.00;0.00;;;;;;;12.88;100.00;100637.94;4967834;28;20204;-76
2023/06/10 04:34:27;;;;;;;3.77;3.13;;;;;;;12.75;100.00;100642.44;4971791;28;20186;-75
2023/06/10 04:36:53;;;;;;;0.70;0.70;;;;;;;12.71;100.00;100648.84;4971672;28;20185;-76
2023/06/10 04:39:19;;;;;;;0.60;0.57;;;;;;;12.67;100.00;100645.16;4967976;28;20228;-75
2023/06/10 04:41:45;;;;;;;0.10;0.10;;;;;;;12.80;100.00;100642.25;4971417;28;20246;-76
2023/06/10 04:44:10;;;;;;;1.40;1.30;;;;;;;12.76;100.00;100633.06;4971924;28;20249;-76
2023/06/10 04:46:36;;;;;;;0.23;0.23;;;;;;;12.91;100.00;100636.47;4972103;28;20216;-74
2023/06/10 04:49:01;;;;;;;0.00;0.00;;;;;;;13.16;100.00;100635.63;4973185;28;20178;-76
2023/06/10 04:51:26;;;;;;;0.63;0.63;;;;;;;13.36;100.00;100636.97;4964455;28;20179;-76
2023/06/10 04:53:52;;;;;;;1.40;1.10;;;;;;;13.25;100.00;100635.69;4958395;28;20222;-76
2023/06/10 04:56:17;;;;;;;0.13;0.13;;;;;;;13.21;100.00;100631.97;4973964;28;20182;-77
2023/06/10 04:58:42;;;;;;;1.37;1.37;;;;;;;13.27;100.00;100633.41;4975383;28;20244;-78
2023/06/10 05:01:08;;;;;;;4.50;1.67;;;;;;;13.21;100.00;100638.28;4972567;28;21357;-76
2023/06/10 05:03:33;;;;;;;0.00;0.00;;;;;;;13.52;100.00;100632.56;4976742;28;20206;-79
2023/06/10 05:05:58;;;;;;;0.30;0.30;;;;;;;13.45;100.00;100635.00;4975312;28;20216;-74
2023/06/10 05:08:24;;;;;;;0.20;0.20;;;;;;;13.28;100.00;100633.09;4975374;28;20562;-75
2023/06/10 05:10:49;;;;;;;0.50;0.50;;;;;;;13.33;100.00;100626.63;4975179;28;20184;-75
2023/06/10 05:13:16;;;;;;;0.00;0.00;;;;;;;13.35;100.00;100633.41;4975542;28;20214;-75
2023/06/10 05:15:44;;;;;;;0.00;0.00;;;;;;;13.62;100.00;100624.00;4975665;28;20217;-75
2023/06/10 05:18:09;;;;;;;0.47;0.47;;;;;;;13.65;100.00;100634.31;4957891;28;20675;-76
2023/06/10 05:20:35;;;;;;;0.10;0.10;;;;;;;13.48;100.00;100639.84;4975054;28;20181;-75
2023/06/10 05:23:00;;;;;;;0.47;0.47;;;;;;;13.46;100.00;100630.34;4975076;28;20216;-75
2023/06/10 05:25:27;;;;;;;0.20;0.20;;;;;;;13.61;100.00;100630.63;4975347;28;20523;-74
2023/06/10 05:27:52;;;;;;;1.37;1.37;;;;;;;13.62;100.00;100623.19;4957686;28;20187;-75
2023/06/10 05:30:18;;;;;;;2.17;1.97;;;;;;;13.46;100.00;100636.63;4974802;28;20200;-76
2023/06/10 05:32:43;;;;;;;0.00;0.00;;;;;;;13.47;100.00;100632.75;4974972;28;20260;-74
2023/06/10 05:35:09;;;;;;;10.93;0.97;;;;;;;13.41;100.00;100636.78;4974750;28;20194;-76
2023/06/10 05:37:36;;;;;;;2.30;1.90;;;;;;;13.29;100.00;100631.94;4974813;28;20254;-75
2023/06/10 05:40:02;;;;;;;0.97;0.40;;;;;;;13.36;100.00;100634.22;4974449;28;20302;-75
2023/06/10 05:42:27;;;;;;;0.30;0.20;;;;;;;13.39;100.00;100641.78;4957192;28;20577;-75
2023/06/10 05:44:53;;;;;;;0.67;0.57;;;;;;;13.61;100.00;100643.53;4975016;28;20294;-75
2023/06/10 05:47:18;;;;;;;0.47;0.47;;;;;;;13.75;100.00;100640.59;4974758;28;20572;-75
2023/06/10 05:49:45;;;;;;;0.77;0.77;;;;;;;13.64;100.00;100632.72;4974428;28;20185;-75
2023/06/10 05:52:10;;;;;;;0.10;0.10;;;;;;;13.66;100.00;100638.66;4974656;28;20182;-74
2023/06/10 05:54:36;;;;;;;0.87;0.87;;;;;;;13.40;100.00;100643.41;4974532;28;20204;-76
2023/06/10 05:57:03;;;;;;;4.93;1.37;;;;;;;13.53;100.00;100644.34;4957437;28;20192;-75
2023/06/10 05:59:28;;;;;;;0.87;0.87;;;;;;;13.48;100.00;100652.78;4974238;28;20178;-74
2023/06/10 06:01:53;;;;;;;0.63;0.20;;;;;;;13.80;100.00;100649.47;4974537;28;20754;-76
2023/06/10 06:04:19;;;;;;;0.20;0.20;;;;;;;13.96;100.00;100641.47;4957000;28;20209;-76
2023/06/10 06:06:44;;;;;;;1.67;1.60;;;;;;;13.93;100.00;100639.41;4974367;28;20219;-75
2023/06/10 06:09:09;;;;;;;0.60;0.60;;;;;;;14.08;100.00;100652.59;4974080;28;20185;-75
2023/06/10 06:11:35;;;;;;;0.07;0.07;;;;;;;14.12;100.00;100648.03;4974487;28;20552;-76
2023/06/10 06:14:01;;;;;;;0.87;0.87;;;;;;;13.99;100.00;100651.81;4973875;28;20264;-76
2023/06/10 06:16:26;;;;;;;1.50;0.73;;;;;;;14.13;100.00;100644.16;4968214;28;20586;-75
2023/06/10 06:18:51;;;;;;;10.80;1.93;;;;;;;13.96;100.00;100646.97;4970759;28;20186;-74
2023/06/10 06:21:17;;;;;;;0.00;0.00;;;;;;;14.08;100.00;100649.84;4974130;28;20212;-76
2023/06/10 06:23:42;;;;;;;1.40;1.30;;;;;;;13.99;100.00;100647.13;4973984;28;20206;-76
2023/06/10 06:26:07;;;;;;;0.83;0.23;;;;;;;13.96;100.00;100639.53;4956909;28;20656;-76
2023/06/10 06:28:33;;;;;;;0.10;0.10;;;;;;;14.23;100.00;100648.47;4973662;28;20214;-75
2023/06/10 06:30:58;;;;;;;2.77;1.90;;;;;;;14.19;100.00;100648.34;4974078;28;20640;-74
2023/06/10 06:33:23;;;;;;;2.23;1.97;;;;;;;14.17;100.00;100645.09;4973906;28;20256;-75
2023/06/10 06:35:48;;;;;;;0.93;0.93;;;;;;;14.09;100.00;100654.19;4974061;28;20189;-75
2023/06/10 06:38:14;;;;;;;1.90;1.80;;;;;;;14.07;100.00;100653.72;4973755;28;20189;-75
2023/06/10 06:40:39;;;;;;;1.40;1.03;;;;;;;14.31;100.00;100655.84;4956299;28;20212;-76
2023/06/10 06:43:04;;;;;;;2.50;2.30;;;;;;;14.34;100.00;100657.16;4973438;28;20257;-74
2023/06/10 06:45:30;;;;;;;0.53;0.53;;;;;;;14.43;100.00;100660.66;4973834;28;20181;-76
2023/06/10 06:47:55;;;;;;;1.50;0.87;;;;;;;14.60;100.00;100666.06;4973646;28;20190;-75
2023/06/10 06:50:21;;;;;;;0.43;0.43;;;;;;;14.65;100.00;100660.41;4973352;28;20236;-76
2023/06/10 06:52:46;;;;;;;2.10;1.13;;;;;;;14.55;100.00;100664.34;4956349;28;20198;-76
2023/06/10 06:55:12;;;;;;;0.10;0.10;;;;;;;14.59;100.00;100664.47;4956480;28;20213;-76
2023/06/10 06:57:37;;;;;;;0.00;0.00;;;;;;;15.01;100.00;100667.25;4973623;28;20209;-74
2023/06/10 07:00:03;;;;;;;0.00;0.00;;;;;;;15.16;100.00;100664.69;4973232;28;20189;-76
2023/06/10 07:02:28;;;;;;;2.10;1.80;;;;;;;14.87;100.00;100659.28;4973444;28;20280;-75
2023/06/10 07:04:55;;;;;;;2.70;2.50;;;;;;;14.89;100.00;100654.22;4973368;28;20185;-75
2023/06/10 07:07:21;;;;;;;0.30;0.30;;;;;;;15.20;100.00;100672.31;4956056;28;20292;-76
2023/06/10 07:09:46;;;;;;;5.27;2.87;;;;;;;14.87;100.00;100668.31;4955766;28;20719;-75
2023/06/10 07:12:12;;;;;;;1.73;1.63;;;;;;;14.95;100.00;100660.38;4973212;28;20213;-74
2023/06/10 07:14:37;;;;;;;0.10;0.10;;;;;;;15.04;100.00;100667.38;4973304;28;20196;-75
2023/06/10 07:17:03;;;;;;;1.40;1.40;;;;;;;15.13;100.00;100665.38;4973688;28;20268;-75
2023/06/10 07:19:28;;;;;;;0.83;0.83;;;;;;;15.28;100.00;100665.91;4955293;28;20276;-73
2023/06/10 07:21:53;;;;;;;2.03;1.83;;;;;;;15.35;100.00;100667.00;4960600;28;20242;-75
2023/06/10 07:24:20;;;;;;;6.27;2.57;;;;;;;15.64;100.00;100677.09;4960460;28;20225;-75
2023/06/10 07:26:45;;;;;;;2.27;2.10;;;;;;;15.80;100.00;100674.50;4966218;28;20248;-76
2023/06/10 07:29:10;;;;;;;1.90;1.80;;;;;;;15.61;100.00;100664.00;4958607;28;20611;-74
2023/06/10 07:31:35;;;;;;;0.30;0.30;;;;;;;15.83;100.00;100678.53;4972905;28;20661;-76
2023/06/10 07:34:01;;;;;;;2.83;2.60;;;;;;;16.09;100.00;100679.03;4972835;28;20265;-75
2023/06/10 07:36:28;;;;;;;0.10;0.10;;;;;;;15.84;100.00;100675.44;4963037;28;20261;-75
2023/06/10 07:38:54;;;;;;;0.10;0.10;;;;;;;15.96;100.00;100675.47;4944183;28;20194;-76
2023/06/10 07:41:20;;;;;;;0.33;0.33;;;;;;;16.12;99.58;100672.84;4955289;28;20256;-76
2023/06/10 07:43:45;;;;;;;7.93;1.90;;;;;;;16.22;98.77;100674.34;4972542;28;20201;-75
2023/06/10 07:46:10;;;;;;;0.03;0.03;;;;;;;16.22;97.04;100675.16;4972916;28;20269;-76
2023/06/10 07:48:36;;;;;;;1.60;1.50;;;;;;;16.38;96.64;100661.47;4972285;28;20182;-75
2023/06/10 07:51:01;;;;;;;2.37;2.27;;;;;;;16.47;96.25;100664.91;4972629;28;20189;-75
2023/06/10 07:53:26;;;;;;;0.00;0.00;;;;;;;16.53;95.96;100669.06;4972608;28;20245;-75
2023/06/10 07:55:52;;;;;;;0.00;0.00;;;;;;;17.00;96.83;100676.03;4972674;28;20174;-73
2023/06/10 07:58:17;;;;;;;4.57;1.40;;;;;;;16.92;94.80;100669.47;4972346;28;20662;-76
2023/06/10 08:00:42;;;;;;;1.00;0.80;;;;;;;16.91;94.55;100676.94;4972606;28;20672;-75
2023/06/10 08:03:07;;;;;;;0.00;0.00;;;;;;;17.22;94.70;100678.28;4972436;28;20213;-75
2023/06/10 08:05:33;;;;;;;0.50;0.50;;;;;;;17.46;93.30;100671.81;4970951;28;20264;-75
2023/06/10 08:07:58;;;;;;;0.00;0.00;;;;;;;17.59;91.90;100672.56;4954704;28;20182;-75
2023/06/10 08:10:23;;;;;;;0.10;0.10;;;;;;;17.68;91.41;100668.53;4971095;28;20721;-76
2023/06/10 08:12:49;;;;;;;0.00;0.00;;;;;;;17.73;90.78;100670.22;4971993;28;20277;-76
2023/06/10 08:15:14;;;;;;;2.67;2.30;;;;;;;17.45;89.12;100659.16;4953803;28;20560;-76
2023/06/10 08:17:39;;;;;;;1.83;1.73;;;;;;;17.46;90.09;100664.34;4972316;28;20685;-76
2023/06/10 08:20:06;;;;;;;0.00;0.00;;;;;;;17.70;91.52;100668.19;4953761;28;20193;-74
2023/06/10 08:22:31;;;;;;;0.30;0.30;;;;;;;17.67;90.36;100647.56;4954752;28;20206;-75
2023/06/10 08:24:57;;;;;;;0.10;0.10;;;;;;;17.61;89.88;100653.69;4972203;28;20188;-75
2023/06/10 08:27:22;;;;;;;0.00;0.00;;;;;;;17.79;89.70;100654.97;4972022;28;20185;-76
2023/06/10 08:29:47;;;;;;;0.80;0.73;;;;;;;17.88;90.51;100654.81;4971724;28;20185;-75
2023/06/10 08:32:13;;;;;;;0.97;0.97;;;;;;;18.07;89.45;100654.91;4971746;28;20273;-76
2023/06/10 08:34:39;;;;;;;3.80;1.60;;;;;;;18.24;89.42;100660.09;4954725;28;20310;-75
2023/06/10 08:37:04;;;;;;;1.17;1.03;;;;;;;18.08;87.89;100656.50;4972134;28;20182;-75
2023/06/10 08:39:33;;;;;;;0.67;0.67;;;;;;;18.09;88.44;100658.94;4971577;28;20547;-76
2023/06/10 08:42:11;;;;;;;0.00;0.00;;;;;;;18.04;89.37;100661.16;4954260;28;20206;-75
2023/06/10 08:44:39;;;;;;;0.87;0.27;;;;;;;18.36;88.45;100657.22;4954657;28;20223;-76
2023/06/10 08:47:14;;;;;;;1.33;1.33;;;;;;;18.29;87.26;100651.53;4971887;28;20210;-76
2023/06/10 08:49:43;;;;;;;0.00;0.00;;;;;;;18.55;87.20;100653.72;4971634;28;20181;-76
2023/06/10 08:52:13;;;;;;;2.90;2.70;;;;;;;18.30;86.43;100647.59;4954291;28;20184;-76
2023/06/10 08:54:43;;;;;;;0.43;0.43;;;;;;;18.50;86.63;100642.13;4954608;28;20922;-76
2023/06/10 08:57:09;;;;;;;0.80;0.80;;;;;;;18.56;86.71;100643.47;4971754;28;20532;-73
2023/06/10 08:59:34;;;;;;;0.27;0.27;;;;;;;18.85;86.37;100648.50;4972386;28;20177;-76
2023/06/10 09:02:02;;;;;;;1.83;1.43;;;;;;;19.21;85.65;100652.00;4971561;28;20201;-76
2023/06/10 09:04:27;;;;;;;2.77;2.57;;;;;;;19.05;84.79;100651.28;4967019;28;20210;-76
2023/06/10 09:06:53;;;;;;;0.00;0.00;;;;;;;18.83;85.00;100639.75;4963452;28;20266;-75
2023/06/10 09:09:22;;;;;;;0.50;0.50;;;;;;;19.03;85.67;100646.09;4970869;28;20189;-76
2023/06/10 09:11:47;;;;;;;0.83;0.83;;;;;;;19.22;83.58;100631.44;4971382;28;20182;-75
2023/06/10 09:14:13;;;;;;;0.57;0.57;;;;;;;19.15;82.68;100632.13;4971346;28;20581;-74
2023/06/10 09:16:39;;;;;;;0.20;0.20;;;;;;;19.03;83.48;100637.81;4971267;28;20185;-76
2023/06/10 09:19:07;;;;;;;3.00;1.83;;;;;;;19.48;84.18;100639.09;4971162;28;20595;-76
2023/06/10 09:21:34;;;;;;;0.83;0.73;;;;;;;19.31;82.84;100632.03;4954090;28;20241;-76
2023/06/10 09:24:00;;;;;;;2.63;2.43;;;;;;;19.47;83.38;100632.75;4954111;28;20217;-75
2023/06/10 09:26:32;;;;;;;0.00;0.00;;;;;;;19.70;83.32;100632.03;4971657;28;20188;-76
2023/06/10 09:29:04;;;;;;;2.07;1.90;;;;;;;19.99;82.26;100636.09;4971368;28;20204;-76
2023/06/10 09:31:31;;;;;;;0.37;0.37;;;;;;;20.06;81.21;100639.78;4954152;28;20228;-76
2023/06/10 09:34:08;;;;;;;0.63;0.63;;;;;;;20.31;81.46;100636.63;4953903;28;20219;-75
2023/06/10 09:36:35;;;;;;;0.93;0.93;;;;;;;20.36;79.80;100634.31;4954185;28;20190;-75
2023/06/10 09:39:01;;;;;;;0.33;0.33;;;;;;;20.63;79.76;100634.34;4971008;28;20557;-76
2023/06/10 09:41:34;;;;;;;0.20;0.20;;;;;;;20.80;78.59;100626.25;4971385;28;20211;-75
2023/06/10 09:44:00;;;;;;;0.87;0.87;;;;;;;21.02;79.57;100637.66;4954037;28;20644;-75
2023/06/10 09:46:31;;;;;;;0.67;0.67;;;;;;;20.97;78.18;100635.19;4971324;28;20178;-76
2023/06/10 09:48:57;;;;;;;1.10;0.93;;;;;;;20.95;78.11;100626.44;4955654;28;20195;-75
2023/06/10 09:51:23;;;;;;;1.30;1.30;;;;;;;20.98;77.22;100629.28;4975052;28;20254;-75
2023/06/10 09:53:50;;;;;;;0.00;0.00;;;;;;;21.05;76.69;100618.25;4957708;28;20215;-76
2023/06/10 09:56:16;;;;;;;2.37;2.23;;;;;;;21.12;76.63;100620.31;4974979;28;20254;-76
2023/06/10 09:58:43;;;;;;;2.77;2.57;;;;;;;20.81;76.76;100607.59;4957637;28;20647;-75
2023/06/10 10:01:11;;;;;;;1.33;1.23;;;;;;;21.13;78.53;100635.03;4974615;28;20180;-76
2023/06/10 10:03:47;;;;;;;1.43;1.13;;;;;;;21.20;76.73;100616.44;4974963;28;20235;-76
2023/06/10 10:06:14;;;;;;;1.27;1.27;;;;;;;21.20;76.45;100621.19;4977359;28;20187;-80
2023/06/10 10:08:39;;;;;;;0.93;0.93;;;;;;;21.54;76.31;100622.00;4958636;28;20223;-75
2023/06/10 10:11:05;;;;;;;1.37;1.23;;;;;;;21.62;75.79;100618.13;4974759;28;20708;-76
2023/06/10 10:13:34;;;;;;;0.43;0.43;;;;;;;21.78;77.72;100629.78;4974583;28;20212;-76
2023/06/10 10:16:15;;;;;;;0.67;0.67;;;;;;;22.09;75.54;100617.38;4974541;28;20218;-74
2023/06/10 10:18:45;;;;;;;3.30;3.03;;;;;;;21.80;74.74;100615.50;4974110;28;20268;-76
2023/06/10 10:21:16;;;;;;;1.23;1.17;;;;;;;22.16;75.68;100616.66;4958464;28;20683;-76
2023/06/10 10:24:05;;;;;;;0.50;0.47;;;;;;;21.93;74.31;100603.69;4974471;28;20211;-76
2023/06/10 10:26:31;;;;;;;0.70;0.70;;;;;;;22.11;73.80;100612.22;4968520;28;20189;-76
2023/06/10 10:29:02;;;;;;;6.53;1.70;;;;;;;22.34;73.98;100617.56;4973880;28;20302;-76
2023/06/10 10:31:32;;;;;;;0.70;0.70;;;;;;;22.21;72.67;100594.00;4974236;28;20603;-76
2023/06/10 10:33:59;;;;;;;5.97;4.67;;;;;;;22.01;73.50;100596.22;4973996;28;20754;-76
2023/06/10 10:36:25;;;;;;;0.70;0.70;;;;;;;22.29;74.36;100608.78;4956755;28;20238;-74
2023/06/10 10:38:51;;;;;;;0.83;0.83;;;;;;;22.31;73.65;100610.00;4956307;28;20281;-76
2023/06/10 10:41:18;;;;;;;3.07;2.53;;;;;;;22.32;73.37;100603.25;4974153;28;20222;-74
2023/06/10 10:43:46;;;;;;;1.73;1.33;;;;;;;22.45;72.09;100593.38;4974439;28;20209;-76
2023/06/10 10:46:14;;;;;;;3.13;2.93;;;;;;;22.40;71.22;100592.94;4974160;28;20194;-76
2023/06/10 10:48:41;;;;;;;1.03;1.00;;;;;;;22.69;71.32;100582.75;4973482;28;20565;-76
2023/06/10 10:51:07;;;;;;;2.27;1.63;;;;;;;22.78;69.87;100581.22;4973942;28;20181;-76
2023/06/10 10:53:32;;;;;;;0.43;0.43;;;;;;;22.92;69.84;100582.50;4973642;28;20204;-76
2023/06/10 10:56:30;;;;;;;1.70;1.43;;;;;;;23.07;69.25;100581.38;4973939;28;20220;-76
2023/06/10 10:59:06;;;;;;;1.60;1.50;;;;;;;23.08;68.86;100578.19;4973007;28;20193;-74
2023/06/10 11:01:42;;;;;;;0.20;0.20;;;;;;;23.01;69.73;100583.75;4972728;28;20243;-76
2023/06/10 11:04:11;;;;;;;6.40;2.93;;;;;;;23.10;68.59;100581.38;4956491;28;20286;-76
2023/06/10 11:06:36;;;;;;;1.00;1.00;;;;;;;23.25;68.20;100587.00;4974304;28;20596;-76
2023/06/10 11:09:25;;;;;;;1.50;1.40;;;;;;;23.48;67.95;100586.66;4973328;28;20189;-76
2023/06/10 11:11:51;;;;;;;0.00;0.00;;;;;;;23.30;67.14;100573.50;4974016;28;20699;-76
2023/06/10 11:14:28;;;;;;;1.47;1.37;;;;;;;23.33;67.64;100571.91;4956250;28;20210;-76
2023/06/10 11:16:57;;;;;;;0.93;0.93;;;;;;;23.51;67.22;100567.13;4973890;28;20208;-76
2023/06/10 11:19:33;;;;;;;0.43;0.43;;;;;;;23.73;66.32;100563.22;4973394;28;20237;-75